createdAt,value
2023-05-21T00:01:42.585Z,10.70
2023-05-21T00:04:47.542Z,10.70
2023-05-21T00:07:53.363Z,10.80
2023-05-21T00:10:57.488Z,10.80
2023-05-21T00:14:01.785Z,10.80
2023-05-21T00:17:06.450Z,10.80
2023-05-21T00:20:11.181Z,10.80
2023-05-21T00:23:18.561Z,10.80
2023-05-21T00:26:26.375Z,10.80
2023-05-21T00:29:34.702Z,10.70
2023-05-21T00:32:39.576Z,10.70
2023-05-21T00:35:44.087Z,10.70
2023-05-21T00:38:48.396Z,10.70
2023-05-21T00:41:52.835Z,10.60
2023-05-21T00:44:57.726Z,10.60
2023-05-21T00:48:04.197Z,10.60
2023-05-21T00:51:08.945Z,10.60
2023-05-21T00:54:13.519Z,10.70
2023-05-21T00:57:20.728Z,10.60
2023-05-21T01:00:26.546Z,10.70
2023-05-21T01:03:30.993Z,10.70
2023-05-21T01:06:35.191Z,10.60
2023-05-21T01:09:40.875Z,10.60
2023-05-21T01:12:47.847Z,10.60
2023-05-21T01:15:53.774Z,10.70
2023-05-21T01:18:59.577Z,10.70
2023-05-21T01:22:07.147Z,10.70
2023-05-21T01:25:12.270Z,10.70
2023-05-21T01:28:16.785Z,10.70
2023-05-21T01:31:28.692Z,10.70
2023-05-21T01:34:47.981Z,10.70
2023-05-21T01:38:04.596Z,10.70
2023-05-21T01:41:17.236Z,10.70
2023-05-21T01:44:23.246Z,10.70
2023-05-21T01:47:31.309Z,10.70
2023-05-21T01:50:37.682Z,10.70
2023-05-21T01:53:42.640Z,10.70
2023-05-21T01:56:48.039Z,10.70
2023-05-21T01:59:54.152Z,10.70
2023-05-21T02:02:59.814Z,10.70
2023-05-21T02:06:04.700Z,10.70
2023-05-21T02:09:09.486Z,10.70
2023-05-21T02:12:13.837Z,10.70
2023-05-21T02:15:19.342Z,10.70
2023-05-21T02:18:23.967Z,10.70
2023-05-21T02:21:28.553Z,10.70
2023-05-21T02:24:33.148Z,10.70
2023-05-21T02:27:39.269Z,10.70
2023-05-21T02:30:44.015Z,10.80
2023-05-21T02:33:49.151Z,10.80
2023-05-21T02:36:53.724Z,10.80
2023-05-21T02:39:58.658Z,10.80
2023-05-21T02:43:02.995Z,10.80
2023-05-21T02:46:08.911Z,10.80
2023-05-21T02:49:13.562Z,10.80
2023-05-21T02:52:22.620Z,10.80
2023-05-21T02:55:27.037Z,10.80
2023-05-21T02:58:32.011Z,10.80
2023-05-21T03:01:36.413Z,10.80
2023-05-21T03:04:46.479Z,10.80
2023-05-21T03:07:51.454Z,10.80
2023-05-21T03:10:56.124Z,10.80
2023-05-21T03:14:01.063Z,10.80
2023-05-21T03:17:06.358Z,10.90
2023-05-21T03:20:17.122Z,10.90
2023-05-21T03:23:22.060Z,10.90
2023-05-21T03:26:29.930Z,10.90
2023-05-21T03:29:36.249Z,11.00
2023-05-21T03:32:41.402Z,11.00
2023-05-21T03:35:46.387Z,11.10
2023-05-21T03:38:50.863Z,11.10
2023-05-21T03:41:56.132Z,11.20
2023-05-21T03:45:10.181Z,11.30
2023-05-21T03:48:18.179Z,11.30
2023-05-21T03:51:23.309Z,11.40
2023-05-21T03:54:27.618Z,11.60
2023-05-21T03:57:36.038Z,11.80
2023-05-21T04:00:40.735Z,11.90
2023-05-21T04:03:45.271Z,12.00
2023-05-21T04:06:51.676Z,12.20
2023-05-21T04:09:56.353Z,12.50
2023-05-21T04:13:01.181Z,12.50
2023-05-21T04:16:09.013Z,12.50
2023-05-21T04:19:13.917Z,12.50
2023-05-21T04:22:18.396Z,12.50
2023-05-21T04:25:23.307Z,12.60
2023-05-21T04:28:28.745Z,12.60
2023-05-21T04:31:34.387Z,12.70
2023-05-21T04:34:40.426Z,12.70
2023-05-21T04:37:46.104Z,12.80
2023-05-21T04:40:52.165Z,12.80
2023-05-21T04:43:56.591Z,13.00
2023-05-21T04:47:04.758Z,13.10
2023-05-21T04:50:10.623Z,13.30
2023-05-21T04:53:15.335Z,13.30
2023-05-21T04:56:19.791Z,13.50
2023-05-21T04:59:24.930Z,13.60
2023-05-21T05:02:30.644Z,13.70
2023-05-21T05:05:35.363Z,13.80
2023-05-21T05:08:40.034Z,13.90
2023-05-21T05:11:44.675Z,13.90
2023-05-21T05:14:49.288Z,14.00
2023-05-21T05:17:54.692Z,14.10
2023-05-21T05:20:59.741Z,14.20
2023-05-21T05:24:04.923Z,14.30
2023-05-21T05:27:10.153Z,14.30
2023-05-21T05:30:14.478Z,14.30
2023-05-21T05:33:18.669Z,14.50
2023-05-21T05:36:23.029Z,14.50
2023-05-21T05:39:27.377Z,14.70
2023-05-21T05:42:31.888Z,14.70
2023-05-21T05:45:39.854Z,14.90
2023-05-21T05:48:49.614Z,15.00
2023-05-21T05:51:55.205Z,15.30
2023-05-21T05:54:59.696Z,15.50
2023-05-21T05:58:04.316Z,15.80
2023-05-21T06:01:10.325Z,16.40
2023-05-21T06:04:14.828Z,17.10
2023-05-21T06:07:19.417Z,17.20
2023-05-21T06:10:23.934Z,17.50
2023-05-21T06:13:28.564Z,18.00
2023-05-21T06:16:34.036Z,18.50
2023-05-21T06:19:39.615Z,18.40
2023-05-21T06:22:44.645Z,18.40
2023-05-21T06:25:48.979Z,18.60
2023-05-21T06:28:53.874Z,18.70
2023-05-21T06:31:58.294Z,18.60
2023-05-21T06:35:02.652Z,18.30
2023-05-21T06:38:07.114Z,18.60
2023-05-21T06:41:11.546Z,18.90
2023-05-21T06:44:26.176Z,19.20
2023-05-21T06:47:41.999Z,19.40
2023-05-21T06:50:46.594Z,19.10
2023-05-21T06:53:51.957Z,18.70
2023-05-21T06:56:56.291Z,18.80
2023-05-21T07:00:00.677Z,19.00
2023-05-21T07:03:05.219Z,19.70
2023-05-21T07:06:09.870Z,20.10
2023-05-21T07:09:15.545Z,20.30
2023-05-21T07:12:20.125Z,20.90
2023-05-21T07:15:25.289Z,20.40
2023-05-21T07:18:30.077Z,20.00
2023-05-21T07:21:34.435Z,20.90
2023-05-21T07:24:39.565Z,21.10
2023-05-21T07:27:44.123Z,21.40
2023-05-21T07:30:48.677Z,21.60
2023-05-21T07:33:57.909Z,20.80
2023-05-21T07:37:06.372Z,21.60
2023-05-21T07:40:11.390Z,21.40
2023-05-21T07:43:16.252Z,21.90
2023-05-21T07:46:20.977Z,22.60
2023-05-21T07:49:28.817Z,22.10
2023-05-21T07:52:33.433Z,21.40
2023-05-21T07:55:38.555Z,21.80
2023-05-21T07:58:45.811Z,22.50
2023-05-21T08:01:51.993Z,22.50
2023-05-21T08:04:56.417Z,22.90
2023-05-21T08:08:02.383Z,23.50
2023-05-21T08:11:07.006Z,23.40
2023-05-21T08:14:12.311Z,22.70
2023-05-21T08:17:16.908Z,22.30
2023-05-21T08:20:21.980Z,22.40
2023-05-21T08:23:27.849Z,22.20
2023-05-21T08:26:34.338Z,22.60
2023-05-21T08:29:39.621Z,22.20
2023-05-21T08:32:45.190Z,22.20
2023-05-21T08:35:49.927Z,21.60
2023-05-21T08:39:08.239Z,21.40
2023-05-21T08:42:37.083Z,21.70
2023-05-21T08:45:47.006Z,21.80
2023-05-21T08:48:55.045Z,21.90
2023-05-21T08:52:01.234Z,21.80
2023-05-21T08:55:07.078Z,21.50
2023-05-21T08:58:13.762Z,22.30
2023-05-21T09:01:19.995Z,22.80
2023-05-21T09:04:29.009Z,23.10
2023-05-21T09:07:39.670Z,22.70
2023-05-21T09:10:52.956Z,22.70
2023-05-21T09:14:02.294Z,22.20
2023-05-21T09:17:23.106Z,22.20
2023-05-21T09:20:36.217Z,22.20
2023-05-21T09:23:41.114Z,22.20
2023-05-21T09:26:45.758Z,21.90
2023-05-21T09:29:50.605Z,21.40
2023-05-21T09:32:59.229Z,21.60
2023-05-21T09:36:08.191Z,21.60
2023-05-21T09:39:16.662Z,22.50
2023-05-21T09:42:22.388Z,22.50
2023-05-21T09:45:28.515Z,22.20
2023-05-21T09:48:37.391Z,22.10
2023-05-21T09:51:44.864Z,22.60
2023-05-21T09:54:49.281Z,23.40
2023-05-21T09:57:53.823Z,24.80
2023-05-21T10:00:59.239Z,24.70
2023-05-21T10:04:08.117Z,25.50
2023-05-21T10:07:12.448Z,25.70
2023-05-21T10:10:20.542Z,26.40
2023-05-21T10:13:25.577Z,25.70
2023-05-21T10:16:33.134Z,25.70
2023-05-21T10:19:38.692Z,25.60
2023-05-21T10:22:45.028Z,26.40
2023-05-21T10:25:51.065Z,25.50
2023-05-21T10:28:57.405Z,26.00
2023-05-21T10:32:03.785Z,25.20
2023-05-21T10:35:09.874Z,25.10
2023-05-21T10:38:15.626Z,25.70
2023-05-21T10:41:22.518Z,26.60
2023-05-21T10:44:46.159Z,27.00
2023-05-21T10:48:16.275Z,26.20
2023-05-21T10:51:38.434Z,26.10
2023-05-21T10:54:58.077Z,26.80
2023-05-21T10:58:13.992Z,27.10
2023-05-21T11:01:19.413Z,27.50
2023-05-21T11:04:27.098Z,26.60
2023-05-21T11:08:20.804Z,26.80
2023-05-21T11:11:44.992Z,26.70
2023-05-21T11:14:58.487Z,25.80
2023-05-21T11:18:03.145Z,25.80
2023-05-21T11:21:10.337Z,26.00
2023-05-21T11:24:19.953Z,25.90
2023-05-21T11:27:37.898Z,26.00
2023-05-21T11:30:42.349Z,25.90
2023-05-21T11:33:47.929Z,25.70
2023-05-21T11:37:23.372Z,25.50
2023-05-21T11:40:30.142Z,26.60
2023-05-21T11:43:39.986Z,27.20
2023-05-21T11:46:44.495Z,25.80
2023-05-21T11:49:49.468Z,25.30
2023-05-21T11:52:53.902Z,25.40
2023-05-21T11:55:59.732Z,25.50
2023-05-21T11:59:05.013Z,26.80
2023-05-21T12:02:09.556Z,26.60
2023-05-21T12:05:14.134Z,26.60
2023-05-21T12:08:27.552Z,26.20
2023-05-21T12:11:32.307Z,25.20
2023-05-21T12:14:37.242Z,25.00
2023-05-21T12:17:41.836Z,25.90
2023-05-21T12:20:45.952Z,26.00
2023-05-21T12:23:50.582Z,26.90
2023-05-21T12:26:55.325Z,26.60
2023-05-21T12:29:59.834Z,27.30
2023-05-21T12:33:04.546Z,28.00
2023-05-21T12:36:08.758Z,28.10
2023-05-21T12:39:13.407Z,28.00
2023-05-21T12:42:29.898Z,28.80
2023-05-21T12:45:34.452Z,28.40
2023-05-21T12:48:39.562Z,27.90
2023-05-21T12:51:45.621Z,27.40
2023-05-21T12:54:52.554Z,26.10
2023-05-21T12:58:10.674Z,25.90
2023-05-21T13:01:15.376Z,25.90
2023-05-21T13:04:20.643Z,26.40
2023-05-21T13:07:26.485Z,25.90
2023-05-21T13:10:30.954Z,26.90
2023-05-21T13:13:35.604Z,26.40
2023-05-21T13:16:40.159Z,26.00
2023-05-21T13:20:12.246Z,25.90
2023-05-21T13:23:17.145Z,25.40
2023-05-21T13:26:21.945Z,25.40
2023-05-21T13:29:26.369Z,25.20
2023-05-21T13:32:30.640Z,25.50
2023-05-21T13:35:35.372Z,25.40
2023-05-21T13:38:39.847Z,25.30
2023-05-21T13:41:44.165Z,25.70
2023-05-21T13:44:49.551Z,25.60
2023-05-21T13:47:53.998Z,26.20
2023-05-21T13:50:58.152Z,26.30
2023-05-21T13:54:02.529Z,26.00
2023-05-21T13:57:07.092Z,26.10
2023-05-21T14:00:14.282Z,25.50
2023-05-21T14:03:19.160Z,25.10
2023-05-21T14:06:23.513Z,25.70
2023-05-21T14:09:27.767Z,25.50
2023-05-21T14:12:33.355Z,25.20
2023-05-21T14:15:38.533Z,25.10
2023-05-21T14:18:43.160Z,24.80
2023-05-21T14:21:47.647Z,24.70
2023-05-21T14:24:52.796Z,24.50
2023-05-21T14:27:57.210Z,24.80
2023-05-21T14:31:01.743Z,24.80
2023-05-21T14:34:08.918Z,24.70
2023-05-21T14:37:13.471Z,24.40
2023-05-21T14:40:17.954Z,24.60
2023-05-21T14:43:22.590Z,24.00
2023-05-21T14:46:27.074Z,24.10
2023-05-21T14:49:31.361Z,24.10
2023-05-21T14:52:35.944Z,24.00
2023-05-21T14:55:40.536Z,23.70
2023-05-21T14:58:45.640Z,23.80
2023-05-21T15:01:50.672Z,23.70
2023-05-21T15:04:56.361Z,23.50
2023-05-21T15:08:00.647Z,23.40
2023-05-21T15:11:07.539Z,23.50
2023-05-21T15:14:12.566Z,23.70
2023-05-21T15:17:16.947Z,23.90
2023-05-21T15:20:21.933Z,24.10
2023-05-21T15:23:26.091Z,23.60
2023-05-21T15:26:30.694Z,23.60
2023-05-21T15:29:35.023Z,23.50
2023-05-21T15:32:39.572Z,23.60
2023-05-21T15:35:44.474Z,23.50
2023-05-21T15:38:49.217Z,23.30
2023-05-21T15:41:54.593Z,23.30
2023-05-21T15:44:59.252Z,23.20
2023-05-21T15:48:03.488Z,23.00
2023-05-21T15:51:07.887Z,22.90
2023-05-21T15:54:13.131Z,23.00
2023-05-21T15:57:17.812Z,22.90
2023-05-21T16:00:22.101Z,22.70
2023-05-21T16:03:26.725Z,22.90
2023-05-21T16:06:31.573Z,22.80
2023-05-21T16:09:37.647Z,22.80
2023-05-21T16:12:42.415Z,22.60
2023-05-21T16:15:46.862Z,22.40
2023-05-21T16:18:51.172Z,22.20
2023-05-21T16:21:55.517Z,22.00
2023-05-21T16:24:59.734Z,22.10
2023-05-21T16:28:04.497Z,22.30
2023-05-21T16:31:09.657Z,22.30
2023-05-21T16:34:14.280Z,21.90
2023-05-21T16:37:18.516Z,21.80
2023-05-21T16:40:23.190Z,21.80
2023-05-21T16:43:27.707Z,21.70
2023-05-21T16:46:32.259Z,21.90
2023-05-21T16:49:36.399Z,21.50
2023-05-21T16:52:40.815Z,21.20
2023-05-21T16:55:45.252Z,21.00
2023-05-21T16:58:50.198Z,21.00
2023-05-21T17:01:54.755Z,20.70
2023-05-21T17:04:59.189Z,20.50
2023-05-21T17:08:03.807Z,20.50
2023-05-21T17:11:08.490Z,20.30
2023-05-21T17:14:17.560Z,20.30
2023-05-21T17:17:27.972Z,20.30
2023-05-21T17:20:32.214Z,20.30
2023-05-21T17:23:36.544Z,20.10
2023-05-21T17:26:40.769Z,19.90
2023-05-21T17:29:45.393Z,19.90
2023-05-21T17:32:49.988Z,19.90
2023-05-21T17:35:56.358Z,19.90
2023-05-21T17:39:00.687Z,19.70
2023-05-21T17:42:04.919Z,19.70
2023-05-21T17:45:09.794Z,19.50
2023-05-21T17:48:14.229Z,19.40
2023-05-21T17:51:18.417Z,19.30
2023-05-21T17:54:22.535Z,19.30
2023-05-21T17:57:27.229Z,19.10
2023-05-21T18:00:32.285Z,19.10
2023-05-21T18:03:36.726Z,19.00
2023-05-21T18:06:41.026Z,18.90
2023-05-21T18:09:45.671Z,18.70
2023-05-21T18:12:50.161Z,18.60
2023-05-21T18:15:56.300Z,18.60
2023-05-21T18:19:06.546Z,18.40
2023-05-21T18:22:11.492Z,18.40
2023-05-21T18:25:16.430Z,18.40
2023-05-21T18:28:20.766Z,18.20
2023-05-21T18:31:25.364Z,18.10
2023-05-21T18:34:29.807Z,18.10
2023-05-21T18:37:34.089Z,18.00
2023-05-21T18:40:39.303Z,17.90
2023-05-21T18:43:43.971Z,17.80
2023-05-21T18:46:48.287Z,17.70
2023-05-21T18:49:52.945Z,17.60
2023-05-21T18:52:57.407Z,17.50
2023-05-21T18:56:02.053Z,17.50
2023-05-21T18:59:06.414Z,17.40
2023-05-21T19:02:11.300Z,17.30
2023-05-21T19:05:16.347Z,17.20
2023-05-21T19:08:21.076Z,17.20
2023-05-21T19:11:31.053Z,17.10
2023-05-21T19:14:35.318Z,17.00
2023-05-21T19:17:40.076Z,16.90
2023-05-21T19:20:44.312Z,16.90
2023-05-21T19:23:53.369Z,16.80
2023-05-21T19:27:00.032Z,16.70
2023-05-21T19:30:05.107Z,16.70
2023-05-21T19:33:09.387Z,16.60
2023-05-21T19:36:13.770Z,16.60
2023-05-21T19:39:18.470Z,16.60
2023-05-21T19:42:22.970Z,16.50
2023-05-21T19:45:27.582Z,16.50
2023-05-21T19:48:32.165Z,16.40
2023-05-21T19:51:36.620Z,16.40
2023-05-21T19:54:41.040Z,16.40
2023-05-21T19:57:45.759Z,16.30
2023-05-21T20:00:51.209Z,16.30
2023-05-21T20:03:56.246Z,16.20
2023-05-21T20:07:00.609Z,16.20
2023-05-21T20:10:05.405Z,16.20
2023-05-21T20:13:09.750Z,16.20
2023-05-21T20:16:14.341Z,16.10
2023-05-21T20:19:20.460Z,16.10
2023-05-21T20:22:24.940Z,16.10
2023-05-21T20:25:32.315Z,16.00
2023-05-21T20:28:37.405Z,15.90
2023-05-21T20:31:42.060Z,15.90
2023-05-21T20:35:01.654Z,15.80
2023-05-21T20:38:07.688Z,15.80
2023-05-21T20:41:13.096Z,15.70
2023-05-21T20:44:17.950Z,15.60
2023-05-21T20:47:23.412Z,15.60
2023-05-21T20:50:28.680Z,15.50
2023-05-21T20:53:33.853Z,15.50
2023-05-21T20:56:42.684Z,15.50
2023-05-21T20:59:47.595Z,15.40
2023-05-21T21:02:52.029Z,15.30
2023-05-21T21:05:58.014Z,15.30
2023-05-21T21:09:04.137Z,15.20
2023-05-21T21:12:21.569Z,15.20
2023-05-21T21:15:29.984Z,15.10
2023-05-21T21:18:34.343Z,15.10
2023-05-21T21:21:38.859Z,15.00
2023-05-21T21:24:43.321Z,14.90
2023-05-21T21:27:48.011Z,14.90
2023-05-21T21:30:52.536Z,14.80
2023-05-21T21:33:57.794Z,14.80
2023-05-21T21:37:02.022Z,14.70
2023-05-21T21:40:07.324Z,14.60
2023-05-21T21:43:12.065Z,14.60
2023-05-21T21:46:16.692Z,14.50
2023-05-21T21:49:21.047Z,14.50
2023-05-21T21:52:28.412Z,14.30
2023-05-21T21:55:33.299Z,14.30
2023-05-21T21:58:37.749Z,14.20
2023-05-21T22:01:42.993Z,14.20
2023-05-21T22:04:47.997Z,14.10
2023-05-21T22:07:52.670Z,14.00
2023-05-21T22:10:57.313Z,14.00
2023-05-21T22:14:02.735Z,13.90
2023-05-21T22:17:08.545Z,13.80
2023-05-21T22:20:12.914Z,13.80
2023-05-21T22:23:17.296Z,13.70
2023-05-21T22:26:23.021Z,13.60
2023-05-21T22:29:27.444Z,13.60
2023-05-21T22:32:31.760Z,13.50
2023-05-21T22:35:36.218Z,13.50
2023-05-21T22:38:40.529Z,13.40
2023-05-21T22:41:45.607Z,13.40
2023-05-21T22:44:50.029Z,13.30
2023-05-21T22:47:56.673Z,13.30
2023-05-21T22:51:01.851Z,13.30
2023-05-21T22:54:06.334Z,13.20
2023-05-21T22:57:10.979Z,13.20
2023-05-21T23:00:18.961Z,13.20
2023-05-21T23:03:23.706Z,13.20
2023-05-21T23:06:28.424Z,13.10
2023-05-21T23:09:32.819Z,13.10
2023-05-21T23:12:37.176Z,13.10
2023-05-21T23:15:43.733Z,13.20
2023-05-21T23:18:49.946Z,13.20
2023-05-21T23:21:54.548Z,13.20
2023-05-21T23:24:58.971Z,13.20
2023-05-21T23:28:04.322Z,13.20
2023-05-21T23:31:08.953Z,13.20
2023-05-21T23:34:13.253Z,13.20
2023-05-21T23:37:17.468Z,13.20
2023-05-21T23:40:22.128Z,13.20
2023-05-21T23:43:26.689Z,13.10
2023-05-21T23:46:31.079Z,13.10
2023-05-21T23:49:35.557Z,13.10
2023-05-21T23:52:41.457Z,13.10
2023-05-21T23:55:46.386Z,13.10
2023-05-21T23:58:51.649Z,13.10
